Ofahoma, Mississippi
Current Conditions -  °F | °C
As of 12:54 AM on Thursday 23 Oct 2014 (Local Time) from KJAN Reporting Station
Clear Clear  
Wind Chill: 52°   Ceiling: Unl
Heat Index: 52°   Visibility: 10mi
Dew Point: 45°   Wind: 5mph
Humidity: 77%   Direction: 50°NE
Pressure: 30.12"   Gusts: NA
Location:  32.8169°N, 89.5441°W
Report Text: KJAN 230554Z AUTO 05004KT 10SM CLR 11/07 A3012 RMK AO2 SLP198 T01110072 10178 20111 402390078 58004
Loading
Personal Weather Stations






























Interactive Weather Map
Tropical Storm Tracking
New forecast layout! Learn more

10-Day Weather Forecast

Advertisements
Track Severe Weather on mobile